Astoria, Illinois
Current Conditions -  °F | °C
As of 12:35 PM on Thursday 30 Oct 2014 (Local Time) from KMQB Reporting Station
Overcast Overcast  
Wind Chill:   Ceiling: 8000
Heat Index:   Visibility: 10mi
Dew Point:   Wind: 6mph
Humidity: 71%   Direction: 140°SE
Pressure: 30.09"   Gusts: NA
Location:  40.23°N, 90.36°W
Report Text: KMQB 301735Z AUTO 14005KT 10SM OVC080 09/04 A3009 RMK AO2 T00920042
Loading
Personal Weather Stations






























Interactive Weather Map
Tropical Storm Tracking
New forecast layout! Learn more

10-Day Weather Forecast

Advertisements
Track Severe Weather on mobile